sensor_id;sensor_type;location;lat;lon;timestamp;pressure;altitude;pressure_sealevel;temperature;humidity
67842;BME280;54642;59.126;37.876;2023-06-05T00:00:28;99918.44;;;10.79;68.81
67842;BME280;54642;59.126;37.876;2023-06-05T00:02:54;99913.22;;;10.82;68.99
67842;BME280;54642;59.126;37.876;2023-06-05T00:05:20;99985.50;;;11.23;69.09
67842;BME280;54642;59.126;37.876;2023-06-05T00:07:46;99930.44;;;10.89;68.94
67842;BME280;54642;59.126;37.876;2023-06-05T00:10:12;99988.97;;;11.19;68.96
67842;BME280;54642;59.126;37.876;2023-06-05T00:12:39;99933.03;;;10.89;69.31
67842;BME280;54642;59.126;37.876;2023-06-05T00:15:06;99968.34;;;11.05;69.16
67842;BME280;54642;59.126;37.876;2023-06-05T00:17:32;99983.88;;;11.09;69.65
67842;BME280;54642;59.126;37.876;2023-06-05T00:19:58;99981.31;;;11.07;69.67
67842;BME280;54642;59.126;37.876;2023-06-05T00:22:26;99968.38;;;11.04;69.66
67842;BME280;54642;59.126;37.876;2023-06-05T00:24:53;99990.78;;;11.10;69.56
67842;BME280;54642;59.126;37.876;2023-06-05T00:27:19;99995.97;;;11.13;69.75
67842;BME280;54642;59.126;37.876;2023-06-05T00:29:46;99996.00;;;11.06;69.91
67842;BME280;54642;59.126;37.876;2023-06-05T00:32:12;99921.97;;;10.70;69.97
67842;BME280;54642;59.126;37.876;2023-06-05T00:34:38;99978.69;;;11.09;69.85
67842;BME280;54642;59.126;37.876;2023-06-05T00:37:04;99973.53;;;11.05;70.02
67842;BME280;54642;59.126;37.876;2023-06-05T00:39:30;99931.44;;;10.74;69.98
67842;BME280;54642;59.126;37.876;2023-06-05T00:41:56;99986.44;;;11.12;70.02
67842;BME280;54642;59.126;37.876;2023-06-05T00:44:22;99948.66;;;10.84;69.93
67842;BME280;54642;59.126;37.876;2023-06-05T00:46:51;99937.44;;;10.84;70.18
67842;BME280;54642;59.126;37.876;2023-06-05T00:49:18;99986.50;;;11.07;70.19
67842;BME280;54642;59.126;37.876;2023-06-05T00:51:45;99950.34;;;10.88;70.21
67842;BME280;54642;59.126;37.876;2023-06-05T00:54:12;99888.44;;;10.50;70.16
67842;BME280;54642;59.126;37.876;2023-06-05T00:56:42;99985.59;;;11.10;70.12
67842;BME280;54642;59.126;37.876;2023-06-05T00:59:08;99994.22;;;11.15;70.31
67842;BME280;54642;59.126;37.876;2023-06-05T01:01:35;99981.28;;;11.10;70.27
67842;BME280;54642;59.126;37.876;2023-06-05T01:04:03;99940.88;;;10.80;70.32
67842;BME280;54642;59.126;37.876;2023-06-05T01:06:30;99991.69;;;11.07;70.43
67842;BME280;54642;59.126;37.876;2023-06-05T01:08:58;99989.94;;;11.11;70.73
67842;BME280;54642;59.126;37.876;2023-06-05T01:16:52;100004.59;;;11.13;70.87
67842;BME280;54642;59.126;37.876;2023-06-05T01:19:27;99992.47;;;11.12;70.79
67842;BME280;54642;59.126;37.876;2023-06-05T01:21:58;99968.47;;;10.93;70.61
67842;BME280;54642;59.126;37.876;2023-06-05T01:24:24;99932.28;;;10.75;70.86
67842;BME280;54642;59.126;37.876;2023-06-05T01:35:08;99995.13;;;11.06;71.02
67842;BME280;54642;59.126;37.876;2023-06-05T01:37:38;99891.06;;;10.45;71.16
67842;BME280;54642;59.126;37.876;2023-06-05T01:40:13;100000.34;;;11.04;71.48
67842;BME280;54642;59.126;37.876;2023-06-05T01:42:41;99939.22;;;10.73;71.35
67842;BME280;54642;59.126;37.876;2023-06-05T01:45:09;99988.22;;;11.05;71.31
67842;BME280;54642;59.126;37.876;2023-06-05T01:47:37;99974.50;;;10.94;71.50
67842;BME280;54642;59.126;37.876;2023-06-05T01:50:04;99996.88;;;11.07;71.51
67842;BME280;54642;59.126;37.876;2023-06-05T01:52:32;99982.22;;;11.00;71.79
67842;BME280;54642;59.126;37.876;2023-06-05T01:54:59;99967.63;;;10.91;71.98
67842;BME280;54642;59.126;37.876;2023-06-05T01:57:29;99983.03;;;11.06;72.09
67842;BME280;54642;59.126;37.876;2023-06-05T01:59:55;99986.50;;;11.05;72.13
67842;BME280;54642;59.126;37.876;2023-06-05T02:02:21;99977.06;;;10.98;72.06
67842;BME280;54642;59.126;37.876;2023-06-05T02:04:48;99974.47;;;10.95;72.28
67842;BME280;54642;59.126;37.876;2023-06-05T02:07:14;99974.50;;;10.94;72.42
67842;BME280;54642;59.126;37.876;2023-06-05T02:09:41;99975.34;;;10.96;72.52
67842;BME280;54642;59.126;37.876;2023-06-05T02:12:08;99975.34;;;10.94;72.51
67842;BME280;54642;59.126;37.876;2023-06-05T02:14:34;99962.44;;;10.88;72.67
67842;BME280;54642;59.126;37.876;2023-06-05T02:17:02;99970.16;;;10.93;72.68
67842;BME280;54642;59.126;37.876;2023-06-05T02:19:32;99972.78;;;10.91;72.74
67842;BME280;54642;59.126;37.876;2023-06-05T02:21:58;99977.09;;;10.89;72.97
67842;BME280;54642;59.126;37.876;2023-06-05T02:24:24;99982.28;;;10.89;73.04
67842;BME280;54642;59.126;37.876;2023-06-05T02:26:53;99984.09;;;10.81;73.20
67842;BME280;54642;59.126;37.876;2023-06-05T02:29:19;99988.38;;;10.86;73.63
67842;BME280;54642;59.126;37.876;2023-06-05T02:31:45;99963.44;;;10.73;73.47
67842;BME280;54642;59.126;37.876;2023-06-05T02:34:11;99991.03;;;10.80;73.72
67842;BME280;54642;59.126;37.876;2023-06-05T02:36:40;99981.50;;;10.81;73.99
67842;BME280;54642;59.126;37.876;2023-06-05T02:39:08;99978.94;;;10.78;73.80
67842;BME280;54642;59.126;37.876;2023-06-05T02:41:34;99908.41;;;10.36;74.06
67842;BME280;54642;59.126;37.876;2023-06-05T02:44:00;99935.91;;;10.52;74.13
67842;BME280;54642;59.126;37.876;2023-06-05T02:46:26;99883.41;;;10.19;74.36
67842;BME280;54642;59.126;37.876;2023-06-05T02:48:52;99989.31;;;10.75;74.61
67842;BME280;54642;59.126;37.876;2023-06-05T02:51:18;99986.69;;;10.78;74.45
67842;BME280;54642;59.126;37.876;2023-06-05T02:53:45;99973.81;;;10.65;74.55
67842;BME280;54642;59.126;37.876;2023-06-05T02:56:14;99966.13;;;10.56;74.91
67842;BME280;54642;59.126;37.876;2023-06-05T02:58:42;99997.97;;;10.72;75.06
67842;BME280;54642;59.126;37.876;2023-06-05T03:01:10;99977.34;;;10.57;75.09
67842;BME280;54642;59.126;37.876;2023-06-05T03:03:41;99981.66;;;10.58;75.33
67842;BME280;54642;59.126;37.876;2023-06-05T03:06:08;99970.50;;;10.45;75.45
67842;BME280;54642;59.126;37.876;2023-06-05T03:08:38;100010.09;;;10.68;75.30
67842;BME280;54642;59.126;37.876;2023-06-05T03:11:10;100002.31;;;10.68;75.49
67842;BME280;54642;59.126;37.876;2023-06-05T03:13:37;99947.25;;;10.34;75.70
67842;BME280;54642;59.126;37.876;2023-06-05T03:16:03;99998.03;;;10.61;75.61
67842;BME280;54642;59.126;37.876;2023-06-05T03:18:34;99987.75;;;10.51;75.93
67842;BME280;54642;59.126;37.876;2023-06-05T03:21:00;99989.44;;;10.53;75.90
67842;BME280;54642;59.126;37.876;2023-06-05T03:23:27;100006.72;;;10.59;76.03
67842;BME280;54642;59.126;37.876;2023-06-05T03:25:55;100003.25;;;10.58;75.87
67842;BME280;54642;59.126;37.876;2023-06-05T03:28:23;100006.72;;;10.54;76.20
67842;BME280;54642;59.126;37.876;2023-06-05T03:30:51;99963.69;;;10.25;76.19
67842;BME280;54642;59.126;37.876;2023-06-05T03:33:19;99994.66;;;10.50;76.15
67842;BME280;54642;59.126;37.876;2023-06-05T03:35:47;100012.75;;;10.59;76.34
67842;BME280;54642;59.126;37.876;2023-06-05T03:38:14;99904.25;;;9.98;76.11
67842;BME280;54642;59.126;37.876;2023-06-05T03:40:41;100000.69;;;10.55;76.24
67842;BME280;54642;59.126;37.876;2023-06-05T03:43:10;100004.97;;;10.56;76.09
67842;BME280;54642;59.126;37.876;2023-06-05T03:45:37;100018.78;;;10.61;76.27
67842;BME280;54642;59.126;37.876;2023-06-05T03:48:09;99939.53;;;10.20;76.27
67842;BME280;54642;59.126;37.876;2023-06-05T03:50:38;100008.47;;;10.54;76.48
67842;BME280;54642;59.126;37.876;2023-06-05T03:53:06;100001.53;;;10.59;76.50
67842;BME280;54642;59.126;37.876;2023-06-05T03:55:35;99941.25;;;10.21;76.46
67842;BME280;54642;59.126;37.876;2023-06-05T03:58:10;100008.41;;;10.61;76.51
67842;BME280;54642;59.126;37.876;2023-06-05T04:00:40;100011.00;;;10.61;76.56
67842;BME280;54642;59.126;37.876;2023-06-05T04:03:07;100010.16;;;10.62;76.66
67842;BME280;54642;59.126;37.876;2023-06-05T04:05:35;100017.03;;;10.60;76.50
67842;BME280;54642;59.126;37.876;2023-06-05T04:08:01;100020.50;;;10.61;76.52
67842;BME280;54642;59.126;37.876;2023-06-05T04:10:28;99953.38;;;10.16;76.60
67842;BME280;54642;59.126;37.876;2023-06-05T04:12:55;100018.75;;;10.66;76.72
67842;BME280;54642;59.126;37.876;2023-06-05T04:15:23;99993.75;;;10.59;76.65
67842;BME280;54642;59.126;37.876;2023-06-05T04:17:49;100013.59;;;10.66;76.75
67842;BME280;54642;59.126;37.876;2023-06-05T04:20:16;99971.38;;;10.45;76.68
67842;BME280;54642;59.126;37.876;2023-06-05T04:22:44;100017.88;;;10.68;76.73
67842;BME280;54642;59.126;37.876;2023-06-05T04:25:14;100003.25;;;10.58;76.74
67842;BME280;54642;59.126;37.876;2023-06-05T04:27:42;100014.44;;;10.70;76.92
67842;BME280;54642;59.126;37.876;2023-06-05T04:30:10;99959.31;;;10.43;76.87
67842;BME280;54642;59.126;37.876;2023-06-05T04:32:37;100016.06;;;10.80;76.81
67842;BME280;54642;59.126;37.876;2023-06-05T04:35:05;99979.91;;;10.64;76.79
67842;BME280;54642;59.126;37.876;2023-06-05T04:37:32;100008.25;;;10.86;76.49
67842;BME280;54642;59.126;37.876;2023-06-05T04:39:58;100006.53;;;10.85;76.66
67842;BME280;54642;59.126;37.876;2023-06-05T04:42:25;99961.75;;;10.64;76.84
67842;BME280;54642;59.126;37.876;2023-06-05T04:44:58;100014.22;;;10.94;76.74
67842;BME280;54642;59.126;37.876;2023-06-05T04:47:28;100008.13;;;11.04;76.39
67842;BME280;54642;59.126;37.876;2023-06-05T04:49:57;100007.25;;;11.04;76.21
67842;BME280;54642;59.126;37.876;2023-06-05T04:52:24;100002.00;;;11.12;76.21
67842;BME280;54642;59.126;37.876;2023-06-05T04:54:50;100002.78;;;11.23;76.07
67842;BME280;54642;59.126;37.876;2023-06-05T04:57:16;99999.25;;;11.30;75.66
67842;BME280;54642;59.126;37.876;2023-06-05T04:59:43;99960.44;;;11.21;75.39
67842;BME280;54642;59.126;37.876;2023-06-05T05:02:12;100005.03;;;11.60;75.09
67842;BME280;54642;59.126;37.876;2023-06-05T05:04:39;100011.16;;;11.53;74.85
67842;BME280;54642;59.126;37.876;2023-06-05T05:07:05;100015.31;;;11.68;74.97
67842;BME280;54642;59.126;37.876;2023-06-05T05:09:32;99979.16;;;11.54;74.68
67842;BME280;54642;59.126;37.876;2023-06-05T05:11:59;100017.88;;;11.72;74.61
67842;BME280;54642;59.126;37.876;2023-06-05T05:14:26;99998.13;;;11.59;74.79
67842;BME280;54642;59.126;37.876;2023-06-05T05:16:53;99974.97;;;11.37;74.79
67842;BME280;54642;59.126;37.876;2023-06-05T05:19:19;100024.94;;;11.59;74.90
67842;BME280;54642;59.126;37.876;2023-06-05T05:21:45;100027.53;;;11.61;74.95
67842;BME280;54642;59.126;37.876;2023-06-05T05:24:12;100012.06;;;11.49;74.92
67842;BME280;54642;59.126;37.876;2023-06-05T05:26:38;99964.72;;;11.25;74.62
67842;BME280;54642;59.126;37.876;2023-06-05T05:29:08;99974.81;;;11.56;73.94
67842;BME280;54642;59.126;37.876;2023-06-05T05:31:34;99998.56;;;12.01;73.43
67842;BME280;54642;59.126;37.876;2023-06-05T05:34:01;100012.94;;;12.28;72.87
67842;BME280;54642;59.126;37.876;2023-06-05T05:36:27;100002.63;;;12.24;72.09
67842;BME280;54642;59.126;37.876;2023-06-05T05:38:54;100010.16;;;12.45;72.19
67842;BME280;54642;59.126;37.876;2023-06-05T05:41:20;100008.25;;;12.56;71.91
67842;BME280;54642;59.126;37.876;2023-06-05T05:43:49;100008.13;;;12.66;72.07
67842;BME280;54642;59.126;37.876;2023-06-05T05:46:15;100003.72;;;12.69;71.75
67842;BME280;54642;59.126;37.876;2023-06-05T05:48:40;99998.50;;;12.71;71.46
67842;BME280;54642;59.126;37.876;2023-06-05T05:51:07;99999.16;;;12.85;71.06
67842;BME280;54642;59.126;37.876;2023-06-05T05:53:33;100002.31;;;13.06;70.63
67842;BME280;54642;59.126;37.876;2023-06-05T05:56:00;100005.81;;;13.03;70.27
67842;BME280;54642;59.126;37.876;2023-06-05T05:58:26;100008.78;;;12.80;70.58
67842;BME280;54642;59.126;37.876;2023-06-05T06:00:52;99962.41;;;12.51;70.19
67842;BME280;54642;59.126;37.876;2023-06-05T06:03:18;100000.00;;;12.87;70.18
67842;BME280;54642;59.126;37.876;2023-06-05T06:05:44;100003.94;;;13.14;69.88
67842;BME280;54642;59.126;37.876;2023-06-05T06:08:11;99964.25;;;13.00;69.57
67842;BME280;54642;59.126;37.876;2023-06-05T06:10:37;99984.84;;;13.12;69.79
67842;BME280;54642;59.126;37.876;2023-06-05T06:13:04;99992.94;;;12.95;69.83
67842;BME280;54642;59.126;37.876;2023-06-05T06:15:31;99981.22;;;12.68;70.19
67842;BME280;54642;59.126;37.876;2023-06-05T06:17:57;100002.88;;;12.69;70.80
67842;BME280;54642;59.126;37.876;2023-06-05T06:20:23;100002.84;;;12.72;71.06
67842;BME280;54642;59.126;37.876;2023-06-05T06:22:49;99988.22;;;12.63;71.10
67842;BME280;54642;59.126;37.876;2023-06-05T06:25:15;100010.56;;;12.75;71.16
67842;BME280;54642;59.126;37.876;2023-06-05T06:27:43;100013.19;;;12.75;70.54
67842;BME280;54642;59.126;37.876;2023-06-05T06:30:14;100001.97;;;12.71;70.26
67842;BME280;54642;59.126;37.876;2023-06-05T06:32:40;100006.41;;;12.65;70.37
67842;BME280;54642;59.126;37.876;2023-06-05T06:35:07;99991.97;;;12.42;69.91
67842;BME280;54642;59.126;37.876;2023-06-05T06:37:33;100008.41;;;12.44;70.26
67842;BME280;54642;59.126;37.876;2023-06-05T06:39:59;100019.72;;;12.42;70.12
67842;BME280;54642;59.126;37.876;2023-06-05T06:42:25;100018.09;;;12.34;70.43
67842;BME280;54642;59.126;37.876;2023-06-05T06:45:01;100016.34;;;12.33;70.07
67842;BME280;54642;59.126;37.876;2023-06-05T06:47:29;100014.47;;;12.45;69.64
67842;BME280;54642;59.126;37.876;2023-06-05T06:49:55;100021.88;;;12.74;69.36
67842;BME280;54642;59.126;37.876;2023-06-05T06:52:20;100017.97;;;13.03;68.66
67842;BME280;54642;59.126;37.876;2023-06-05T06:54:46;99993.53;;;13.14;68.05
67842;BME280;54642;59.126;37.876;2023-06-05T06:57:12;100017.50;;;13.33;67.69
67842;BME280;54642;59.126;37.876;2023-06-05T06:59:38;100010.59;;;13.29;67.76
67842;BME280;54642;59.126;37.876;2023-06-05T07:04:37;100004.47;;;13.35;67.04
67842;BME280;54642;59.126;37.876;2023-06-05T07:07:04;99990.34;;;13.48;66.26
67842;BME280;54642;59.126;37.876;2023-06-05T07:09:30;99983.38;;;13.50;65.47
67842;BME280;54642;59.126;37.876;2023-06-05T07:11:56;100007.06;;;13.83;65.27
67842;BME280;54642;59.126;37.876;2023-06-05T07:14:22;100003.31;;;13.97;64.89
67842;BME280;54642;59.126;37.876;2023-06-05T07:16:48;100004.91;;;14.04;64.72
67842;BME280;54642;59.126;37.876;2023-06-05T07:19:17;100009.06;;;14.14;64.29
67842;BME280;54642;59.126;37.876;2023-06-05T07:21:43;100001.94;;;14.24;63.56
67842;BME280;54642;59.126;37.876;2023-06-05T07:24:09;99967.25;;;14.20;63.43
67842;BME280;54642;59.126;37.876;2023-06-05T07:26:35;99971.34;;;14.30;62.85
67842;BME280;54642;59.126;37.876;2023-06-05T07:29:01;99968.72;;;14.32;62.66
67842;BME280;54642;59.126;37.876;2023-06-05T07:31:27;100001.38;;;14.48;62.46
67842;BME280;54642;59.126;37.876;2023-06-05T07:33:54;99972.50;;;14.19;62.82
67842;BME280;54642;59.126;37.876;2023-06-05T07:36:20;100010.44;;;14.30;62.94
67842;BME280;54642;59.126;37.876;2023-06-05T07:38:48;99982.91;;;14.19;63.03
67842;BME280;54642;59.126;37.876;2023-06-05T07:41:15;99950.06;;;14.11;62.75
67842;BME280;54642;59.126;37.876;2023-06-05T07:43:40;99974.66;;;14.39;62.36
67842;BME280;54642;59.126;37.876;2023-06-05T07:46:07;99992.84;;;14.42;62.68
67842;BME280;54642;59.126;37.876;2023-06-05T07:48:35;99996.25;;;14.45;62.86
67842;BME280;54642;59.126;37.876;2023-06-05T07:51:01;100014.78;;;14.32;62.84
67842;BME280;54642;59.126;37.876;2023-06-05T07:53:27;99992.78;;;14.03;63.21
67842;BME280;54642;59.126;37.876;2023-06-05T07:55:53;100008.41;;;14.04;63.56
67842;BME280;54642;59.126;37.876;2023-06-05T07:58:19;100019.66;;;14.06;63.54
67842;BME280;54642;59.126;37.876;2023-06-05T08:00:45;99996.16;;;14.08;63.40
67842;BME280;54642;59.126;37.876;2023-06-05T08:03:14;100018.25;;;14.32;62.77
67842;BME280;54642;59.126;37.876;2023-06-05T08:05:49;99998.09;;;14.40;62.37
67842;BME280;54642;59.126;37.876;2023-06-05T08:08:44;100011.81;;;14.48;62.42
67842;BME280;54642;59.126;37.876;2023-06-05T08:11:10;100020.94;;;14.29;62.80
67842;BME280;54642;59.126;37.876;2023-06-05T08:13:38;100016.09;;;14.10;62.86
67842;BME280;54642;59.126;37.876;2023-06-05T08:16:05;99994.03;;;13.83;63.41
67842;BME280;54642;59.126;37.876;2023-06-05T08:18:31;99951.16;;;13.56;63.53
67842;BME280;54642;59.126;37.876;2023-06-05T08:20:57;100004.13;;;14.00;63.67
67842;BME280;54642;59.126;37.876;2023-06-05T08:23:23;100007.03;;;14.28;62.96
67842;BME280;54642;59.126;37.876;2023-06-05T08:25:49;99988.28;;;14.52;62.35
67842;BME280;54642;59.126;37.876;2023-06-05T08:28:15;99973.88;;;14.76;61.53
67842;BME280;54642;59.126;37.876;2023-06-05T08:30:42;99977.06;;;14.87;61.45
67842;BME280;54642;59.126;37.876;2023-06-05T08:33:09;99989.38;;;14.82;61.43
67842;BME280;54642;59.126;37.876;2023-06-05T08:35:36;99993.19;;;14.67;61.22
67842;BME280;54642;59.126;37.876;2023-06-05T08:38:03;99995.22;;;14.53;61.65
67842;BME280;54642;59.126;37.876;2023-06-05T08:40:29;99974.91;;;14.28;61.38
67842;BME280;54642;59.126;37.876;2023-06-05T08:42:55;99992.44;;;14.62;61.33
67842;BME280;54642;59.126;37.876;2023-06-05T08:45:21;99986.50;;;14.93;60.95
67842;BME280;54642;59.126;37.876;2023-06-05T08:47:51;99981.56;;;15.16;60.60
67842;BME280;54642;59.126;37.876;2023-06-05T08:50:18;99992.34;;;15.38;60.08
67842;BME280;54642;59.126;37.876;2023-06-05T08:52:44;99981.69;;;15.46;59.90
67842;BME280;54642;59.126;37.876;2023-06-05T08:55:12;99890.22;;;14.82;59.20
67842;BME280;54642;59.126;37.876;2023-06-05T08:57:39;99980.31;;;15.33;59.44
67842;BME280;54642;59.126;37.876;2023-06-05T09:00:06;99965.84;;;15.52;59.54
67842;BME280;54642;59.126;37.876;2023-06-05T09:02:40;99961.16;;;15.65;59.03
67842;BME280;54642;59.126;37.876;2023-06-05T09:05:09;99960.94;;;15.73;58.74
67842;BME280;54642;59.126;37.876;2023-06-05T09:07:36;99963.53;;;15.76;58.65
67842;BME280;54642;59.126;37.876;2023-06-05T09:10:06;99953.88;;;15.78;58.83
67842;BME280;54642;59.126;37.876;2023-06-05T09:13:03;99941.28;;;15.92;58.42
67842;BME280;54642;59.126;37.876;2023-06-05T09:15:33;99951.81;;;15.89;57.25
67842;BME280;54642;59.126;37.876;2023-06-05T09:18:10;99953.38;;;15.95;57.37
67842;BME280;54642;59.126;37.876;2023-06-05T09:20:39;99948.34;;;15.89;57.04
67842;BME280;54642;59.126;37.876;2023-06-05T09:23:25;99945.53;;;15.95;56.98
67842;BME280;54642;59.126;37.876;2023-06-05T09:25:54;99928.63;;;15.77;56.12
67842;BME280;54642;59.126;37.876;2023-06-05T09:28:21;99961.41;;;15.89;56.52
67842;BME280;54642;59.126;37.876;2023-06-05T09:30:57;99902.06;;;15.61;56.48
67842;BME280;54642;59.126;37.876;2023-06-05T09:33:25;99940.34;;;15.93;56.72
67842;BME280;54642;59.126;37.876;2023-06-05T09:36:02;99933.44;;;15.92;56.09
67842;BME280;54642;59.126;37.876;2023-06-05T09:38:29;99935.84;;;15.98;56.46
67842;BME280;54642;59.126;37.876;2023-06-05T09:41:05;99931.44;;;16.00;55.73
67842;BME280;54642;59.126;37.876;2023-06-05T09:43:31;99926.94;;;16.06;55.54
67842;BME280;54642;59.126;37.876;2023-06-05T09:45:57;99941.53;;;16.13;55.55
67842;BME280;54642;59.126;37.876;2023-06-05T09:48:23;99937.22;;;16.12;55.11
67842;BME280;54642;59.126;37.876;2023-06-05T09:50:54;99929.25;;;16.15;55.18
67842;BME280;54642;59.126;37.876;2023-06-05T09:53:26;99929.09;;;16.21;55.78
67842;BME280;54642;59.126;37.876;2023-06-05T09:55:54;99942.53;;;16.38;55.36
67842;BME280;54642;59.126;37.876;2023-06-05T09:58:20;99936.63;;;16.32;54.92
67842;BME280;54642;59.126;37.876;2023-06-05T10:00:46;99930.31;;;16.09;55.29
67842;BME280;54642;59.126;37.876;2023-06-05T10:03:17;99964.59;;;15.98;55.57
67842;BME280;54642;59.126;37.876;2023-06-05T10:05:44;99966.91;;;15.79;55.69
67842;BME280;54642;59.126;37.876;2023-06-05T10:08:13;99972.88;;;15.50;56.11
67842;BME280;54642;59.126;37.876;2023-06-05T10:10:40;99979.94;;;15.12;57.61
67842;BME280;54642;59.126;37.876;2023-06-05T10:13:07;99909.56;;;14.36;59.36
67842;BME280;54642;59.126;37.876;2023-06-05T10:15:36;99978.00;;;14.45;60.92
67842;BME280;54642;59.126;37.876;2023-06-05T10:18:04;99999.16;;;14.32;61.78
67842;BME280;54642;59.126;37.876;2023-06-05T10:20:32;100003.56;;;14.28;62.56
67842;BME280;54642;59.126;37.876;2023-06-05T10:23:00;100001.94;;;14.24;62.49
67842;BME280;54642;59.126;37.876;2023-06-05T10:25:27;100004.50;;;14.25;62.14
67842;BME280;54642;59.126;37.876;2023-06-05T10:30:39;100011.41;;;14.26;62.43
67842;BME280;54642;59.126;37.876;2023-06-05T10:38:35;100002.19;;;14.10;60.97
67842;BME280;54642;59.126;37.876;2023-06-05T10:41:03;99998.75;;;14.09;60.78
67842;BME280;54642;59.126;37.876;2023-06-05T10:43:46;99962.00;;;13.80;60.64
67842;BME280;54642;59.126;37.876;2023-06-05T10:46:35;100004.88;;;14.07;60.59
67842;BME280;54642;59.126;37.876;2023-06-05T10:51:35;99965.41;;;13.83;60.73
67842;BME280;54642;59.126;37.876;2023-06-05T10:54:04;99969.81;;;13.78;60.87
67842;BME280;54642;59.126;37.876;2023-06-05T10:59:17;100003.06;;;14.09;60.46
67842;BME280;54642;59.126;37.876;2023-06-05T11:07:20;99996.13;;;14.09;60.11
67842;BME280;54642;59.126;37.876;2023-06-05T11:10:19;99992.38;;;14.23;60.01
67842;BME280;54642;59.126;37.876;2023-06-05T11:15:42;99992.53;;;14.56;59.05
67842;BME280;54642;59.126;37.876;2023-06-05T11:18:31;99939.94;;;14.37;58.31
67842;BME280;54642;59.126;37.876;2023-06-05T11:20:58;100003.41;;;14.76;58.18
67842;BME280;54642;59.126;37.876;2023-06-05T11:23:25;99906.38;;;14.23;58.00
67842;BME280;54642;59.126;37.876;2023-06-05T11:25:55;99977.22;;;14.81;58.51
67842;BME280;54642;59.126;37.876;2023-06-05T11:28:43;99963.00;;;14.93;58.17
67842;BME280;54642;59.126;37.876;2023-06-05T11:31:10;99996.06;;;15.28;57.76
67842;BME280;54642;59.126;37.876;2023-06-05T11:33:36;99988.84;;;15.38;57.79
67842;BME280;54642;59.126;37.876;2023-06-05T11:36:05;99969.63;;;15.42;57.51
67842;BME280;54642;59.126;37.876;2023-06-05T11:38:32;99978.19;;;15.47;56.96
67842;BME280;54642;59.126;37.876;2023-06-05T11:40:59;99940.59;;;15.20;56.95
67842;BME280;54642;59.126;37.876;2023-06-05T11:43:25;99974.84;;;15.42;56.91
67842;BME280;54642;59.126;37.876;2023-06-05T11:45:57;99931.97;;;15.16;57.08
67842;BME280;54642;59.126;37.876;2023-06-05T11:48:23;99908.88;;;15.02;57.55
67842;BME280;54642;59.126;37.876;2023-06-05T11:51:00;99976.47;;;15.46;57.05
67842;BME280;54642;59.126;37.876;2023-06-05T11:53:27;99919.59;;;15.24;57.00
67842;BME280;54642;59.126;37.876;2023-06-05T11:55:54;99971.16;;;15.49;56.86
67842;BME280;54642;59.126;37.876;2023-06-05T11:58:35;99960.78;;;15.46;56.94
67842;BME280;54642;59.126;37.876;2023-06-05T12:01:05;99916.56;;;15.07;56.77
67842;BME280;54642;59.126;37.876;2023-06-05T12:03:31;99957.88;;;15.25;56.96
67842;BME280;54642;59.126;37.876;2023-06-05T12:06:01;99970.84;;;15.27;57.58
67842;BME280;54642;59.126;37.876;2023-06-05T12:08:32;99921.19;;;14.96;57.13
67842;BME280;54642;59.126;37.876;2023-06-05T12:10:59;99932.56;;;14.93;56.96
67842;BME280;54642;59.126;37.876;2023-06-05T12:13:48;99973.06;;;15.10;57.20
67842;BME280;54642;59.126;37.876;2023-06-05T12:16:15;99969.69;;;15.04;57.20
67842;BME280;54642;59.126;37.876;2023-06-05T12:18:42;99975.66;;;15.10;57.09
67842;BME280;54642;59.126;37.876;2023-06-05T12:21:22;99958.28;;;15.09;57.56
67842;BME280;54642;59.126;37.876;2023-06-05T12:23:49;99953.13;;;15.05;57.64
67842;BME280;54642;59.126;37.876;2023-06-05T12:26:15;99966.06;;;15.10;57.60
67842;BME280;54642;59.126;37.876;2023-06-05T12:28:42;99911.81;;;14.89;57.71
67842;BME280;54642;59.126;37.876;2023-06-05T12:31:31;99962.97;;;15.29;57.10
67842;BME280;54642;59.126;37.876;2023-06-05T12:33:56;99956.66;;;15.37;57.45
67842;BME280;54642;59.126;37.876;2023-06-05T12:36:22;99955.84;;;15.35;57.31
67842;BME280;54642;59.126;37.876;2023-06-05T12:38:48;99955.75;;;15.40;56.59
67842;BME280;54642;59.126;37.876;2023-06-05T12:41:14;99947.66;;;15.49;55.73
67842;BME280;54642;59.126;37.876;2023-06-05T12:43:40;99944.91;;;15.54;54.69
67842;BME280;54642;59.126;37.876;2023-06-05T12:46:06;99919.00;;;15.46;54.66
67842;BME280;54642;59.126;37.876;2023-06-05T12:48:37;99939.72;;;15.52;54.59
67842;BME280;54642;59.126;37.876;2023-06-05T12:51:04;99939.91;;;15.46;54.28
67842;BME280;54642;59.126;37.876;2023-06-05T12:53:30;99946.19;;;15.39;54.41
67842;BME280;54642;59.126;37.876;2023-06-05T12:55:56;99936.41;;;15.47;54.25
67842;BME280;54642;59.126;37.876;2023-06-05T12:58:22;99935.50;;;15.48;53.87
67842;BME280;54642;59.126;37.876;2023-06-05T13:00:50;99930.19;;;15.51;52.98
67842;BME280;54642;59.126;37.876;2023-06-05T13:03:20;99950.09;;;15.55;53.15
67842;BME280;54642;59.126;37.876;2023-06-05T13:05:46;99859.03;;;15.12;52.42
67842;BME280;54642;59.126;37.876;2023-06-05T13:08:12;99919.81;;;15.48;52.70
67842;BME280;54642;59.126;37.876;2023-06-05T13:10:37;99923.16;;;15.53;51.92
67842;BME280;54642;59.126;37.876;2023-06-05T13:13:04;99945.44;;;15.67;51.83
67842;BME280;54642;59.126;37.876;2023-06-05T13:15:30;99948.22;;;15.60;52.17
67842;BME280;54642;59.126;37.876;2023-06-05T13:17:57;99945.88;;;15.51;51.66
67842;BME280;54642;59.126;37.876;2023-06-05T13:20:22;99935.78;;;15.37;51.15
67842;BME280;54642;59.126;37.876;2023-06-05T13:22:57;99955.66;;;15.43;51.37
67842;BME280;54642;59.126;37.876;2023-06-05T13:25:25;99963.72;;;15.34;51.87
67842;BME280;54642;59.126;37.876;2023-06-05T13:27:53;99978.75;;;15.25;52.61
67842;BME280;54642;59.126;37.876;2023-06-05T13:30:24;99974.41;;;15.24;52.56